sensor_id;sensor_type;location;lat;lon;timestamp;temperature;humidity
25436;DHT22;13363;52.772;-3.890;2022-12-18T00:00:09;3.30;99.90
25436;DHT22;13363;52.772;-3.890;2022-12-18T00:02:35;3.20;99.90
25436;DHT22;13363;52.772;-3.890;2022-12-18T00:05:01;3.00;99.90
25436;DHT22;13363;52.772;-3.890;2022-12-18T00:07:27;2.90;99.90
25436;DHT22;13363;52.772;-3.890;2022-12-18T00:09:53;2.90;99.90
25436;DHT22;13363;52.772;-3.890;2022-12-18T00:12:18;2.90;99.90
25436;DHT22;13363;52.772;-3.890;2022-12-18T00:14:44;2.80;99.90
25436;DHT22;13363;52.772;-3.890;2022-12-18T00:17:10;2.80;99.90
25436;DHT22;13363;52.772;-3.890;2022-12-18T00:19:36;2.80;99.90
25436;DHT22;13363;52.772;-3.890;2022-12-18T00:22:02;2.80;99.90
25436;DHT22;13363;52.772;-3.890;2022-12-18T00:24:28;2.80;99.90
25436;DHT22;13363;52.772;-3.890;2022-12-18T00:26:53;2.80;99.90
25436;DHT22;13363;52.772;-3.890;2022-12-18T00:29:19;2.70;99.90
25436;DHT22;13363;52.772;-3.890;2022-12-18T00:31:45;2.70;99.90
25436;DHT22;13363;52.772;-3.890;2022-12-18T00:34:12;2.60;99.90
25436;DHT22;13363;52.772;-3.890;2022-12-18T00:36:40;3.10;99.90
25436;DHT22;13363;52.772;-3.890;2022-12-18T00:39:06;3.10;99.90
25436;DHT22;13363;52.772;-3.890;2022-12-18T00:41:32;3.00;99.90
25436;DHT22;13363;52.772;-3.890;2022-12-18T00:44:17;3.00;99.90
25436;DHT22;13363;52.772;-3.890;2022-12-18T00:46:44;3.00;99.90
25436;DHT22;13363;52.772;-3.890;2022-12-18T00:49:10;3.00;99.90
25436;DHT22;13363;52.772;-3.890;2022-12-18T00:51:39;2.90;99.90
25436;DHT22;13363;52.772;-3.890;2022-12-18T00:54:05;2.90;99.90
25436;DHT22;13363;52.772;-3.890;2022-12-18T00:56:31;2.90;99.90
25436;DHT22;13363;52.772;-3.890;2022-12-18T00:58:57;2.90;99.90
25436;DHT22;13363;52.772;-3.890;2022-12-18T01:01:23;2.90;99.90
25436;DHT22;13363;52.772;-3.890;2022-12-18T01:03:49;2.90;99.90
25436;DHT22;13363;52.772;-3.890;2022-12-18T01:06:15;2.90;99.90
25436;DHT22;13363;52.772;-3.890;2022-12-18T01:08:42;3.00;99.90
25436;DHT22;13363;52.772;-3.890;2022-12-18T01:11:13;2.90;99.90
25436;DHT22;13363;52.772;-3.890;2022-12-18T01:13:39;3.10;99.90
25436;DHT22;13363;52.772;-3.890;2022-12-18T01:16:05;3.10;99.90
25436;DHT22;13363;52.772;-3.890;2022-12-18T01:18:32;3.10;99.90
25436;DHT22;13363;52.772;-3.890;2022-12-18T01:20:58;3.10;99.90
25436;DHT22;13363;52.772;-3.890;2022-12-18T01:23:27;3.00;99.90
25436;DHT22;13363;52.772;-3.890;2022-12-18T01:25:53;3.00;99.90
25436;DHT22;13363;52.772;-3.890;2022-12-18T01:28:18;2.90;99.90
25436;DHT22;13363;52.772;-3.890;2022-12-18T01:30:44;2.80;99.90
25436;DHT22;13363;52.772;-3.890;2022-12-18T01:33:10;2.80;99.90
25436;DHT22;13363;52.772;-3.890;2022-12-18T01:35:45;2.80;99.90
25436;DHT22;13363;52.772;-3.890;2022-12-18T01:38:11;2.80;99.90
25436;DHT22;13363;52.772;-3.890;2022-12-18T01:40:36;2.70;99.90
25436;DHT22;13363;52.772;-3.890;2022-12-18T01:43:02;2.70;99.90
25436;DHT22;13363;52.772;-3.890;2022-12-18T01:45:30;2.70;99.90
25436;DHT22;13363;52.772;-3.890;2022-12-18T01:48:03;2.70;99.90
25436;DHT22;13363;52.772;-3.890;2022-12-18T01:50:41;2.80;99.90
25436;DHT22;13363;52.772;-3.890;2022-12-18T01:53:12;2.90;99.90
25436;DHT22;13363;52.772;-3.890;2022-12-18T01:55:47;3.10;99.90
25436;DHT22;13363;52.772;-3.890;2022-12-18T01:58:15;3.20;99.90
25436;DHT22;13363;52.772;-3.890;2022-12-18T02:00:41;3.10;99.90
25436;DHT22;13363;52.772;-3.890;2022-12-18T02:03:07;3.20;99.90
25436;DHT22;13363;52.772;-3.890;2022-12-18T02:08:53;3.50;99.90
25436;DHT22;13363;52.772;-3.890;2022-12-18T02:19:09;3.50;99.90
25436;DHT22;13363;52.772;-3.890;2022-12-18T02:21:55;3.50;99.90
25436;DHT22;13363;52.772;-3.890;2022-12-18T02:24:34;3.60;99.90
25436;DHT22;13363;52.772;-3.890;2022-12-18T02:27:05;3.40;99.90
25436;DHT22;13363;52.772;-3.890;2022-12-18T02:29:48;3.20;99.90
25436;DHT22;13363;52.772;-3.890;2022-12-18T02:32:24;3.00;99.90
25436;DHT22;13363;52.772;-3.890;2022-12-18T02:34:52;2.90;99.90
25436;DHT22;13363;52.772;-3.890;2022-12-18T02:37:20;3.20;99.90
25436;DHT22;13363;52.772;-3.890;2022-12-18T02:39:48;3.40;99.90
25436;DHT22;13363;52.772;-3.890;2022-12-18T02:42:14;3.70;99.90
25436;DHT22;13363;52.772;-3.890;2022-12-18T02:44:47;3.70;99.90
25436;DHT22;13363;52.772;-3.890;2022-12-18T02:47:14;3.70;99.90
25436;DHT22;13363;52.772;-3.890;2022-12-18T02:58:27;3.20;99.90
25436;DHT22;13363;52.772;-3.890;2022-12-18T03:01:25;3.10;99.90
25436;DHT22;13363;52.772;-3.890;2022-12-18T03:04:01;3.10;99.90
25436;DHT22;13363;52.772;-3.890;2022-12-18T03:06:31;3.20;99.90
25436;DHT22;13363;52.772;-3.890;2022-12-18T03:09:02;3.10;99.90
25436;DHT22;13363;52.772;-3.890;2022-12-18T03:11:33;3.20;99.90
25436;DHT22;13363;52.772;-3.890;2022-12-18T03:14:20;3.40;99.90
25436;DHT22;13363;52.772;-3.890;2022-12-18T03:16:50;3.40;99.90
25436;DHT22;13363;52.772;-3.890;2022-12-18T03:19:21;3.40;99.90
25436;DHT22;13363;52.772;-3.890;2022-12-18T03:21:50;3.50;99.90
25436;DHT22;13363;52.772;-3.890;2022-12-18T03:24:18;3.60;99.90
25436;DHT22;13363;52.772;-3.890;2022-12-18T03:26:47;3.60;99.90
25436;DHT22;13363;52.772;-3.890;2022-12-18T03:29:26;3.70;99.90
25436;DHT22;13363;52.772;-3.890;2022-12-18T03:32:01;3.80;99.90
25436;DHT22;13363;52.772;-3.890;2022-12-18T03:34:31;3.70;99.90
25436;DHT22;13363;52.772;-3.890;2022-12-18T03:36:58;3.70;99.90
25436;DHT22;13363;52.772;-3.890;2022-12-18T03:39:24;3.60;99.90
25436;DHT22;13363;52.772;-3.890;2022-12-18T03:47:06;3.40;99.90
25436;DHT22;13363;52.772;-3.890;2022-12-18T03:49:35;3.30;99.90
25436;DHT22;13363;52.772;-3.890;2022-12-18T03:52:09;3.20;99.90
25436;DHT22;13363;52.772;-3.890;2022-12-18T03:54:37;3.20;99.90
25436;DHT22;13363;52.772;-3.890;2022-12-18T03:57:16;3.30;99.90
25436;DHT22;13363;52.772;-3.890;2022-12-18T03:59:45;3.50;99.90
25436;DHT22;13363;52.772;-3.890;2022-12-18T04:02:11;3.30;99.90
25436;DHT22;13363;52.772;-3.890;2022-12-18T04:04:38;3.20;99.90
25436;DHT22;13363;52.772;-3.890;2022-12-18T04:07:05;3.20;99.90
25436;DHT22;13363;52.772;-3.890;2022-12-18T04:09:33;3.30;99.90
25436;DHT22;13363;52.772;-3.890;2022-12-18T04:11:59;3.30;99.90
25436;DHT22;13363;52.772;-3.890;2022-12-18T04:14:25;3.40;99.90
25436;DHT22;13363;52.772;-3.890;2022-12-18T04:19:17;3.80;99.90
25436;DHT22;13363;52.772;-3.890;2022-12-18T04:21:43;4.10;99.90
25436;DHT22;13363;52.772;-3.890;2022-12-18T04:24:09;4.10;99.90
25436;DHT22;13363;52.772;-3.890;2022-12-18T04:26:35;4.20;99.90
25436;DHT22;13363;52.772;-3.890;2022-12-18T04:29:00;4.10;99.90
25436;DHT22;13363;52.772;-3.890;2022-12-18T04:31:26;4.00;99.90
25436;DHT22;13363;52.772;-3.890;2022-12-18T04:33:52;4.10;99.90
25436;DHT22;13363;52.772;-3.890;2022-12-18T04:36:18;4.00;99.90
25436;DHT22;13363;52.772;-3.890;2022-12-18T04:38:44;4.00;99.90
25436;DHT22;13363;52.772;-3.890;2022-12-18T04:41:09;4.10;99.90
25436;DHT22;13363;52.772;-3.890;2022-12-18T04:43:38;4.30;99.90
25436;DHT22;13363;52.772;-3.890;2022-12-18T04:46:05;4.40;99.90
25436;DHT22;13363;52.772;-3.890;2022-12-18T04:48:31;4.60;99.90
25436;DHT22;13363;52.772;-3.890;2022-12-18T04:50:57;4.60;99.90
25436;DHT22;13363;52.772;-3.890;2022-12-18T04:53:23;4.60;99.90
25436;DHT22;13363;52.772;-3.890;2022-12-18T04:55:49;4.60;99.90
25436;DHT22;13363;52.772;-3.890;2022-12-18T04:58:14;4.50;99.90
25436;DHT22;13363;52.772;-3.890;2022-12-18T05:00:40;4.40;99.90
25436;DHT22;13363;52.772;-3.890;2022-12-18T05:03:06;4.40;99.90
25436;DHT22;13363;52.772;-3.890;2022-12-18T05:05:34;4.30;99.90
25436;DHT22;13363;52.772;-3.890;2022-12-18T05:08:00;4.20;99.90
25436;DHT22;13363;52.772;-3.890;2022-12-18T05:10:26;4.30;99.90
25436;DHT22;13363;52.772;-3.890;2022-12-18T05:12:52;4.40;99.90
25436;DHT22;13363;52.772;-3.890;2022-12-18T05:15:30;4.20;99.90
25436;DHT22;13363;52.772;-3.890;2022-12-18T05:17:57;4.10;99.90
25436;DHT22;13363;52.772;-3.890;2022-12-18T05:20:24;4.00;99.90
25436;DHT22;13363;52.772;-3.890;2022-12-18T05:22:50;4.00;99.90
25436;DHT22;13363;52.772;-3.890;2022-12-18T05:25:16;4.00;99.90
25436;DHT22;13363;52.772;-3.890;2022-12-18T05:27:42;4.00;99.90
25436;DHT22;13363;52.772;-3.890;2022-12-18T05:30:09;4.00;99.90
25436;DHT22;13363;52.772;-3.890;2022-12-18T05:32:35;3.90;99.90
25436;DHT22;13363;52.772;-3.890;2022-12-18T05:35:01;3.90;99.90
25436;DHT22;13363;52.772;-3.890;2022-12-18T05:37:27;4.00;99.90
25436;DHT22;13363;52.772;-3.890;2022-12-18T05:39:53;4.10;99.90
25436;DHT22;13363;52.772;-3.890;2022-12-18T05:42:19;4.10;99.90
25436;DHT22;13363;52.772;-3.890;2022-12-18T05:44:44;4.10;99.90
25436;DHT22;13363;52.772;-3.890;2022-12-18T05:47:10;4.10;99.90
25436;DHT22;13363;52.772;-3.890;2022-12-18T05:49:36;4.00;99.90
25436;DHT22;13363;52.772;-3.890;2022-12-18T05:52:02;4.10;99.90
25436;DHT22;13363;52.772;-3.890;2022-12-18T05:54:28;4.30;99.90
25436;DHT22;13363;52.772;-3.890;2022-12-18T05:56:54;4.30;99.90
25436;DHT22;13363;52.772;-3.890;2022-12-18T05:59:20;4.30;99.90
25436;DHT22;13363;52.772;-3.890;2022-12-18T06:01:46;4.40;99.90
25436;DHT22;13363;52.772;-3.890;2022-12-18T06:04:12;4.50;99.90
25436;DHT22;13363;52.772;-3.890;2022-12-18T06:06:38;4.40;99.90
25436;DHT22;13363;52.772;-3.890;2022-12-18T06:09:04;4.50;99.90
25436;DHT22;13363;52.772;-3.890;2022-12-18T06:11:36;4.50;99.90
25436;DHT22;13363;52.772;-3.890;2022-12-18T06:14:03;4.60;99.90
25436;DHT22;13363;52.772;-3.890;2022-12-18T06:16:30;4.60;99.90
25436;DHT22;13363;52.772;-3.890;2022-12-18T06:18:59;4.60;99.90
25436;DHT22;13363;52.772;-3.890;2022-12-18T06:21:26;4.50;99.90
25436;DHT22;13363;52.772;-3.890;2022-12-18T06:23:52;4.60;99.90
25436;DHT22;13363;52.772;-3.890;2022-12-18T06:26:18;4.60;99.90
25436;DHT22;13363;52.772;-3.890;2022-12-18T06:28:44;4.50;99.90
25436;DHT22;13363;52.772;-3.890;2022-12-18T06:31:10;4.60;99.90
25436;DHT22;13363;52.772;-3.890;2022-12-18T06:33:37;4.60;99.90
25436;DHT22;13363;52.772;-3.890;2022-12-18T06:36:09;4.40;99.90
25436;DHT22;13363;52.772;-3.890;2022-12-18T06:38:36;4.30;99.90
25436;DHT22;13363;52.772;-3.890;2022-12-18T06:41:10;4.10;99.90
25436;DHT22;13363;52.772;-3.890;2022-12-18T06:43:36;4.10;99.90
25436;DHT22;13363;52.772;-3.890;2022-12-18T06:46:03;4.50;99.90
25436;DHT22;13363;52.772;-3.890;2022-12-18T06:48:29;4.70;99.90
25436;DHT22;13363;52.772;-3.890;2022-12-18T06:50:55;4.90;99.90
25436;DHT22;13363;52.772;-3.890;2022-12-18T06:53:22;4.80;99.90
25436;DHT22;13363;52.772;-3.890;2022-12-18T06:55:48;4.80;99.90
25436;DHT22;13363;52.772;-3.890;2022-12-18T06:58:14;4.80;99.90
25436;DHT22;13363;52.772;-3.890;2022-12-18T07:00:40;4.90;99.90
25436;DHT22;13363;52.772;-3.890;2022-12-18T07:03:06;4.80;99.90
25436;DHT22;13363;52.772;-3.890;2022-12-18T07:05:32;4.70;99.90
25436;DHT22;13363;52.772;-3.890;2022-12-18T07:07:58;4.70;99.90
25436;DHT22;13363;52.772;-3.890;2022-12-18T07:10:24;4.50;99.90
25436;DHT22;13363;52.772;-3.890;2022-12-18T07:12:50;4.50;99.90
25436;DHT22;13363;52.772;-3.890;2022-12-18T07:15:16;4.60;99.90
25436;DHT22;13363;52.772;-3.890;2022-12-18T07:17:42;4.50;99.90
25436;DHT22;13363;52.772;-3.890;2022-12-18T07:20:08;4.50;99.90
25436;DHT22;13363;52.772;-3.890;2022-12-18T07:22:34;4.50;99.90
25436;DHT22;13363;52.772;-3.890;2022-12-18T07:25:00;4.60;99.90
25436;DHT22;13363;52.772;-3.890;2022-12-18T07:27:26;4.60;99.90
25436;DHT22;13363;52.772;-3.890;2022-12-18T07:29:52;4.60;99.90
25436;DHT22;13363;52.772;-3.890;2022-12-18T07:32:17;4.50;99.90
25436;DHT22;13363;52.772;-3.890;2022-12-18T07:34:43;4.60;99.90
25436;DHT22;13363;52.772;-3.890;2022-12-18T07:37:09;4.60;99.90
25436;DHT22;13363;52.772;-3.890;2022-12-18T07:39:35;4.60;99.90
25436;DHT22;13363;52.772;-3.890;2022-12-18T07:42:01;4.60;99.90
25436;DHT22;13363;52.772;-3.890;2022-12-18T07:44:45;4.60;99.90
25436;DHT22;13363;52.772;-3.890;2022-12-18T07:47:11;4.60;99.90
25436;DHT22;13363;52.772;-3.890;2022-12-18T07:49:37;4.60;99.90
25436;DHT22;13363;52.772;-3.890;2022-12-18T07:52:03;4.60;99.90
25436;DHT22;13363;52.772;-3.890;2022-12-18T07:54:29;4.70;99.90
25436;DHT22;13363;52.772;-3.890;2022-12-18T07:56:55;4.80;99.90
25436;DHT22;13363;52.772;-3.890;2022-12-18T07:59:21;4.80;99.90
25436;DHT22;13363;52.772;-3.890;2022-12-18T08:01:47;4.70;99.90
25436;DHT22;13363;52.772;-3.890;2022-12-18T08:04:13;4.70;99.90
25436;DHT22;13363;52.772;-3.890;2022-12-18T08:06:38;4.70;99.90
25436;DHT22;13363;52.772;-3.890;2022-12-18T08:09:04;4.60;99.90
25436;DHT22;13363;52.772;-3.890;2022-12-18T08:11:31;4.50;99.90
25436;DHT22;13363;52.772;-3.890;2022-12-18T08:13:57;4.50;99.90
25436;DHT22;13363;52.772;-3.890;2022-12-18T08:16:23;4.50;99.90
25436;DHT22;13363;52.772;-3.890;2022-12-18T08:18:51;4.40;99.90
25436;DHT22;13363;52.772;-3.890;2022-12-18T08:21:19;4.40;99.90
25436;DHT22;13363;52.772;-3.890;2022-12-18T08:23:47;4.40;99.90
25436;DHT22;13363;52.772;-3.890;2022-12-18T08:26:13;4.40;99.90
25436;DHT22;13363;52.772;-3.890;2022-12-18T08:28:39;4.50;99.90
25436;DHT22;13363;52.772;-3.890;2022-12-18T08:31:06;4.50;99.90
25436;DHT22;13363;52.772;-3.890;2022-12-18T08:33:32;4.50;99.90
25436;DHT22;13363;52.772;-3.890;2022-12-18T08:35:59;4.60;99.90
25436;DHT22;13363;52.772;-3.890;2022-12-18T08:38:25;4.60;99.90
25436;DHT22;13363;52.772;-3.890;2022-12-18T08:40:59;4.50;99.90
25436;DHT22;13363;52.772;-3.890;2022-12-18T08:43:25;4.50;99.90
25436;DHT22;13363;52.772;-3.890;2022-12-18T08:46:10;4.50;99.90
25436;DHT22;13363;52.772;-3.890;2022-12-18T08:48:36;4.50;99.90
25436;DHT22;13363;52.772;-3.890;2022-12-18T08:51:01;4.50;99.90
25436;DHT22;13363;52.772;-3.890;2022-12-18T08:53:27;4.50;99.90
25436;DHT22;13363;52.772;-3.890;2022-12-18T08:58:20;4.60;99.90
25436;DHT22;13363;52.772;-3.890;2022-12-18T09:00:45;4.50;99.90
25436;DHT22;13363;52.772;-3.890;2022-12-18T09:03:16;4.50;99.90
25436;DHT22;13363;52.772;-3.890;2022-12-18T09:05:42;4.40;99.90
25436;DHT22;13363;52.772;-3.890;2022-12-18T09:08:08;4.40;99.90
25436;DHT22;13363;52.772;-3.890;2022-12-18T09:10:44;4.30;99.90
25436;DHT22;13363;52.772;-3.890;2022-12-18T09:13:11;4.30;99.90
25436;DHT22;13363;52.772;-3.890;2022-12-18T09:15:45;4.30;99.90
25436;DHT22;13363;52.772;-3.890;2022-12-18T09:18:12;4.30;99.90
25436;DHT22;13363;52.772;-3.890;2022-12-18T09:20:38;4.40;99.90
25436;DHT22;13363;52.772;-3.890;2022-12-18T09:23:05;4.40;99.90
25436;DHT22;13363;52.772;-3.890;2022-12-18T09:25:32;4.40;99.90
25436;DHT22;13363;52.772;-3.890;2022-12-18T09:28:04;4.40;99.90
25436;DHT22;13363;52.772;-3.890;2022-12-18T09:30:30;4.40;99.90
25436;DHT22;13363;52.772;-3.890;2022-12-18T09:32:59;4.50;99.90
25436;DHT22;13363;52.772;-3.890;2022-12-18T09:35:25;4.50;99.90
25436;DHT22;13363;52.772;-3.890;2022-12-18T09:37:51;4.50;99.90
25436;DHT22;13363;52.772;-3.890;2022-12-18T09:40:21;4.50;99.90
25436;DHT22;13363;52.772;-3.890;2022-12-18T09:42:52;4.50;99.90
25436;DHT22;13363;52.772;-3.890;2022-12-18T09:45:19;4.60;99.90
25436;DHT22;13363;52.772;-3.890;2022-12-18T09:47:47;4.60;99.90
25436;DHT22;13363;52.772;-3.890;2022-12-18T09:50:35;4.60;99.90
25436;DHT22;13363;52.772;-3.890;2022-12-18T09:53:21;4.60;99.90
25436;DHT22;13363;52.772;-3.890;2022-12-18T09:55:48;4.80;99.90
25436;DHT22;13363;52.772;-3.890;2022-12-18T10:00:59;4.70;99.90
25436;DHT22;13363;52.772;-3.890;2022-12-18T10:03:25;4.70;99.90
25436;DHT22;13363;52.772;-3.890;2022-12-18T10:14:24;5.00;99.90
25436;DHT22;13363;52.772;-3.890;2022-12-18T10:17:17;5.10;99.90
25436;DHT22;13363;52.772;-3.890;2022-12-18T10:19:59;5.10;99.90
25436;DHT22;13363;52.772;-3.890;2022-12-18T10:28:15;4.90;99.90
25436;DHT22;13363;52.772;-3.890;2022-12-18T10:30:42;5.00;99.90
25436;DHT22;13363;52.772;-3.890;2022-12-18T10:33:18;5.00;99.90
25436;DHT22;13363;52.772;-3.890;2022-12-18T10:35:45;5.00;99.90
25436;DHT22;13363;52.772;-3.890;2022-12-18T10:41:01;5.00;99.90
25436;DHT22;13363;52.772;-3.890;2022-12-18T10:43:35;5.10;99.90
25436;DHT22;13363;52.772;-3.890;2022-12-18T10:51:06;5.30;99.90
25436;DHT22;13363;52.772;-3.890;2022-12-18T10:53:36;5.20;99.90
25436;DHT22;13363;52.772;-3.890;2022-12-18T10:56:04;5.20;99.90
25436;DHT22;13363;52.772;-3.890;2022-12-18T10:58:36;5.30;99.90
25436;DHT22;13363;52.772;-3.890;2022-12-18T11:01:13;5.30;99.90
25436;DHT22;13363;52.772;-3.890;2022-12-18T11:03:44;5.30;99.90
25436;DHT22;13363;52.772;-3.890;2022-12-18T11:06:19;5.30;99.90
25436;DHT22;13363;52.772;-3.890;2022-12-18T11:09:05;5.20;99.90
25436;DHT22;13363;52.772;-3.890;2022-12-18T11:11:32;5.20;99.90
25436;DHT22;13363;52.772;-3.890;2022-12-18T11:14:05;5.30;99.90
25436;DHT22;13363;52.772;-3.890;2022-12-18T11:16:46;5.20;99.90
25436;DHT22;13363;52.772;-3.890;2022-12-18T11:22:00;5.10;99.90
25436;DHT22;13363;52.772;-3.890;2022-12-18T11:24:32;5.10;99.90
25436;DHT22;13363;52.772;-3.890;2022-12-18T11:27:04;5.30;99.90
25436;DHT22;13363;52.772;-3.890;2022-12-18T11:29:35;5.20;99.90
25436;DHT22;13363;52.772;-3.890;2022-12-18T11:35:09;5.20;99.90
25436;DHT22;13363;52.772;-3.890;2022-12-18T11:37:37;5.20;99.90
25436;DHT22;13363;52.772;-3.890;2022-12-18T11:40:27;5.30;99.90
25436;DHT22;13363;52.772;-3.890;2022-12-18T11:43:40;5.20;99.90
25436;DHT22;13363;52.772;-3.890;2022-12-18T11:46:26;5.20;99.90
25436;DHT22;13363;52.772;-3.890;2022-12-18T11:49:03;5.20;99.90
25436;DHT22;13363;52.772;-3.890;2022-12-18T11:52:37;5.30;99.90
25436;DHT22;13363;52.772;-3.890;2022-12-18T11:54:37;5.30;99.90
25436;DHT22;13363;52.772;-3.890;2022-12-18T11:57:36;5.40;99.90
25436;DHT22;13363;52.772;-3.890;2022-12-18T12:00:12;5.40;99.90
25436;DHT22;13363;52.772;-3.890;2022-12-18T12:05:51;5.40;99.90
25436;DHT22;13363;52.772;-3.890;2022-12-18T12:11:40;5.40;99.90
25436;DHT22;13363;52.772;-3.890;2022-12-18T12:14:26;5.40;99.90
25436;DHT22;13363;52.772;-3.890;2022-12-18T12:17:14;5.40;99.90
25436;DHT22;13363;52.772;-3.890;2022-12-18T12:19:55;5.30;99.90
25436;DHT22;13363;52.772;-3.890;2022-12-18T12:25:18;5.30;99.90
25436;DHT22;13363;52.772;-3.890;2022-12-18T12:27:56;5.40;99.90
25436;DHT22;13363;52.772;-3.890;2022-12-18T12:36:53;5.40;99.90
25436;DHT22;13363;52.772;-3.890;2022-12-18T12:39:02;5.60;99.90
25436;DHT22;13363;52.772;-3.890;2022-12-18T12:41:33;5.70;99.90
25436;DHT22;13363;52.772;-3.890;2022-12-18T12:44:23;5.60;99.90
25436;DHT22;13363;52.772;-3.890;2022-12-18T12:46:52;5.70;99.90
25436;DHT22;13363;52.772;-3.890;2022-12-18T12:49:26;5.80;99.90
25436;DHT22;13363;52.772;-3.890;2022-12-18T12:52:00;5.70;99.90
25436;DHT22;13363;52.772;-3.890;2022-12-18T12:54:27;5.80;99.90
25436;DHT22;13363;52.772;-3.890;2022-12-18T13:02:06;5.70;99.90
25436;DHT22;13363;52.772;-3.890;2022-12-18T13:04:49;5.70;99.90
25436;DHT22;13363;52.772;-3.890;2022-12-18T13:07:25;5.70;99.90
25436;DHT22;13363;52.772;-3.890;2022-12-18T13:20:41;5.90;99.90
25436;DHT22;13363;52.772;-3.890;2022-12-18T13:23:27;5.90;99.90
25436;DHT22;13363;52.772;-3.890;2022-12-18T13:34:19;5.90;99.90
25436;DHT22;13363;52.772;-3.890;2022-12-18T13:36:47;5.90;99.90
25436;DHT22;13363;52.772;-3.890;2022-12-18T13:41:41;5.90;99.90
25436;DHT22;13363;52.772;-3.890;2022-12-18T13:44:12;5.90;99.90
25436;DHT22;13363;52.772;-3.890;2022-12-18T13:46:45;5.90;99.90
25436;DHT22;13363;52.772;-3.890;2022-12-18T13:51:43;6.10;99.90
25436;DHT22;13363;52.772;-3.890;2022-12-18T13:57:00;6.20;99.90
25436;DHT22;13363;52.772;-3.890;2022-12-18T13:59:39;6.20;99.90
25436;DHT22;13363;52.772;-3.890;2022-12-18T14:02:13;6.10;99.90
25436;DHT22;13363;52.772;-3.890;2022-12-18T14:04:40;6.10;99.90
25436;DHT22;13363;52.772;-3.890;2022-12-18T14:07:25;6.10;99.90
25436;DHT22;13363;52.772;-3.890;2022-12-18T14:09:52;6.10;99.90
25436;DHT22;13363;52.772;-3.890;2022-12-18T14:12:25;6.10;99.90
25436;DHT22;13363;52.772;-3.890;2022-12-18T14:16:01;6.20;99.90
25436;DHT22;13363;52.772;-3.890;2022-12-18T14:18:21;6.30;99.90
25436;DHT22;13363;52.772;-3.890;2022-12-18T14:20:50;6.30;99.90
25436;DHT22;13363;52.772;-3.890;2022-12-18T14:26:26;6.30;99.90
25436;DHT22;13363;52.772;-3.890;2022-12-18T14:28:58;6.20;99.90
25436;DHT22;13363;52.772;-3.890;2022-12-18T14:31:28;6.20;99.90
25436;DHT22;13363;52.772;-3.890;2022-12-18T14:33:55;6.30;99.90
25436;DHT22;13363;52.772;-3.890;2022-12-18T14:36:26;6.30;99.90
25436;DHT22;13363;52.772;-3.890;2022-12-18T14:38:57;6.20;99.90
25436;DHT22;13363;52.772;-3.890;2022-12-18T14:41:25;6.40;99.90
25436;DHT22;13363;52.772;-3.890;2022-12-18T14:43:53;6.60;99.90
25436;DHT22;13363;52.772;-3.890;2022-12-18T14:46:36;6.70;99.90
25436;DHT22;13363;52.772;-3.890;2022-12-18T14:49:31;6.80;99.90
25436;DHT22;13363;52.772;-3.890;2022-12-18T14:52:05;7.00;99.90
25436;DHT22;13363;52.772;-3.890;2022-12-18T14:54:32;6.90;99.90
25436;DHT22;13363;52.772;-3.890;2022-12-18T14:57:23;7.00;99.90
25436;DHT22;13363;52.772;-3.890;2022-12-18T14:59:50;7.10;99.90
25436;DHT22;13363;52.772;-3.890;2022-12-18T15:02:23;7.00;99.90
25436;DHT22;13363;52.772;-3.890;2022-12-18T15:05:26;7.00;99.90
25436;DHT22;13363;52.772;-3.890;2022-12-18T15:07:53;7.10;99.90
25436;DHT22;13363;52.772;-3.890;2022-12-18T15:12:49;7.20;99.90
25436;DHT22;13363;52.772;-3.890;2022-12-18T15:23:21;7.20;99.90
25436;DHT22;13363;52.772;-3.890;2022-12-18T15:25:54;7.00;99.90
25436;DHT22;13363;52.772;-3.890;2022-12-18T15:28:36;7.10;99.90
25436;DHT22;13363;52.772;-3.890;2022-12-18T15:36:23;7.10;99.90
25436;DHT22;13363;52.772;-3.890;2022-12-18T15:38:51;7.20;99.90
25436;DHT22;13363;52.772;-3.890;2022-12-18T15:41:20;7.60;99.90
25436;DHT22;13363;52.772;-3.890;2022-12-18T15:43:49;7.80;99.90
25436;DHT22;13363;52.772;-3.890;2022-12-18T15:46:18;7.80;99.90
25436;DHT22;13363;52.772;-3.890;2022-12-18T15:48:55;7.80;99.90
25436;DHT22;13363;52.772;-3.890;2022-12-18T15:51:26;7.80;99.90
25436;DHT22;13363;52.772;-3.890;2022-12-18T15:53:55;8.10;99.90
25436;DHT22;13363;52.772;-3.890;2022-12-18T15:56:22;8.10;99.90
25436;DHT22;13363;52.772;-3.890;2022-12-18T15:59:14;8.10;99.90
25436;DHT22;13363;52.772;-3.890;2022-12-18T16:01:43;8.10;99.90
25436;DHT22;13363;52.772;-3.890;2022-12-18T16:04:12;8.50;99.90
25436;DHT22;13363;52.772;-3.890;2022-12-18T16:06:39;8.60;99.90
25436;DHT22;13363;52.772;-3.890;2022-12-18T16:09:05;8.70;99.90
25436;DHT22;13363;52.772;-3.890;2022-12-18T16:11:33;8.50;99.90
25436;DHT22;13363;52.772;-3.890;2022-12-18T16:14:17;8.40;99.90
25436;DHT22;13363;52.772;-3.890;2022-12-18T16:16:45;8.30;99.90
25436;DHT22;13363;52.772;-3.890;2022-12-18T16:19:11;8.10;99.90
25436;DHT22;13363;52.772;-3.890;2022-12-18T16:21:37;8.20;99.90
25436;DHT22;13363;52.772;-3.890;2022-12-18T16:24:03;8.30;99.90
25436;DHT22;13363;52.772;-3.890;2022-12-18T16:26:29;8.20;99.90
25436;DHT22;13363;52.772;-3.890;2022-12-18T16:28:58;8.30;99.90
25436;DHT22;13363;52.772;-3.890;2022-12-18T16:31:23;8.40;99.90
25436;DHT22;13363;52.772;-3.890;2022-12-18T16:33:49;8.60;99.90
25436;DHT22;13363;52.772;-3.890;2022-12-18T16:36:15;8.60;99.90
25436;DHT22;13363;52.772;-3.890;2022-12-18T16:38:41;8.60;99.90
25436;DHT22;13363;52.772;-3.890;2022-12-18T16:41:18;8.60;99.90
25436;DHT22;13363;52.772;-3.890;2022-12-18T16:43:59;8.80;99.90
25436;DHT22;13363;52.772;-3.890;2022-12-18T16:46:25;9.10;99.90
25436;DHT22;13363;52.772;-3.890;2022-12-18T16:48:51;9.20;99.90
25436;DHT22;13363;52.772;-3.890;2022-12-18T16:51:17;9.10;99.90
25436;DHT22;13363;52.772;-3.890;2022-12-18T16:53:43;9.10;99.90
25436;DHT22;13363;52.772;-3.890;2022-12-18T16:56:09;9.10;99.90
25436;DHT22;13363;52.772;-3.890;2022-12-18T16:58:35;8.90;99.90
25436;DHT22;13363;52.772;-3.890;2022-12-18T17:01:00;9.00;99.90
25436;DHT22;13363;52.772;-3.890;2022-12-18T17:03:26;8.90;99.90
25436;DHT22;13363;52.772;-3.890;2022-12-18T17:05:53;8.70;99.90
25436;DHT22;13363;52.772;-3.890;2022-12-18T17:08:19;8.60;99.90
25436;DHT22;13363;52.772;-3.890;2022-12-18T17:10:44;8.60;99.90
25436;DHT22;13363;52.772;-3.890;2022-12-18T17:13:10;8.80;99.90
25436;DHT22;13363;52.772;-3.890;2022-12-18T17:15:36;8.90;99.90
25436;DHT22;13363;52.772;-3.890;2022-12-18T17:18:03;9.00;99.90
25436;DHT22;13363;52.772;-3.890;2022-12-18T17:20:32;9.00;99.90
25436;DHT22;13363;52.772;-3.890;2022-12-18T17:22:57;9.00;99.90
25436;DHT22;13363;52.772;-3.890;2022-12-18T17:25:23;8.90;99.90
25436;DHT22;13363;52.772;-3.890;2022-12-18T17:27:50;8.80;99.90
25436;DHT22;13363;52.772;-3.890;2022-12-18T17:30:16;9.00;99.90
25436;DHT22;13363;52.772;-3.890;2022-12-18T17:32:42;8.90;99.90
25436;DHT22;13363;52.772;-3.890;2022-12-18T17:35:08;8.80;99.90
25436;DHT22;13363;52.772;-3.890;2022-12-18T17:37:34;8.90;99.90
25436;DHT22;13363;52.772;-3.890;2022-12-18T17:39:59;8.90;99.90
25436;DHT22;13363;52.772;-3.890;2022-12-18T17:42:25;9.00;99.90
25436;DHT22;13363;52.772;-3.890;2022-12-18T17:44:51;9.00;99.90
25436;DHT22;13363;52.772;-3.890;2022-12-18T17:47:17;8.90;99.90
25436;DHT22;13363;52.772;-3.890;2022-12-18T17:49:43;8.90;99.90
25436;DHT22;13363;52.772;-3.890;2022-12-18T17:52:09;8.80;99.90